createdAt,value
2019-04-06T00:02:53.413Z,13.00
2019-04-06T00:07:57.193Z,13.00
2019-04-06T00:13:01.004Z,14.00
2019-04-06T00:18:04.786Z,13.00
2019-04-06T00:23:08.635Z,13.00
2019-04-06T00:28:12.424Z,11.00
2019-04-06T00:33:17.626Z,12.25
2019-04-06T00:38:21.696Z,13.00
2019-04-06T00:43:25.645Z,12.75
2019-04-06T00:48:29.439Z,13.00
2019-04-06T00:53:33.297Z,13.00
2019-04-06T00:58:37.060Z,11.75
2019-04-06T01:03:40.871Z,11.20
2019-04-06T01:08:44.749Z,12.50
2019-04-06T01:13:48.533Z,12.00
2019-04-06T01:18:52.327Z,12.00
2019-04-06T01:23:56.120Z,12.75
2019-04-06T01:28:59.925Z,11.80
2019-04-06T01:34:03.701Z,10.00
2019-04-06T01:39:07.494Z,12.20
2019-04-06T01:44:11.259Z,11.20
2019-04-06T01:49:15.070Z,10.80
2019-04-06T01:54:18.895Z,11.00
2019-04-06T01:59:22.906Z,11.00
2019-04-06T02:04:26.890Z,11.25
2019-04-06T02:09:30.678Z,9.25
2019-04-06T02:14:34.491Z,10.20
2019-04-06T02:19:38.276Z,10.25
2019-04-06T02:24:42.122Z,10.20
2019-04-06T02:29:46.138Z,9.75
2019-04-06T02:35:07.652Z,9.75
2019-04-06T02:40:29.365Z,11.00
2019-04-06T02:45:33.128Z,10.25
2019-04-06T02:50:36.956Z,10.00
2019-04-06T02:55:40.748Z,10.00
2019-04-06T03:00:44.521Z,9.00
2019-04-06T03:05:48.418Z,9.00
2019-04-06T03:10:52.299Z,9.25
2019-04-06T03:15:56.264Z,9.00
2019-04-06T03:21:00.156Z,9.25
2019-04-06T03:26:03.989Z,9.00
2019-04-06T03:31:07.824Z,9.00
2019-04-06T03:36:11.725Z,9.25
2019-04-06T03:41:15.522Z,9.00
2019-04-06T03:46:19.317Z,9.25
2019-04-06T03:51:23.186Z,9.00
2019-04-06T03:56:27.082Z,9.60
2019-04-06T04:01:30.840Z,8.60
2019-04-06T04:06:34.858Z,9.00
2019-04-06T04:11:38.683Z,9.00
2019-04-06T04:16:42.514Z,10.00
2019-04-06T04:21:46.286Z,10.00
2019-04-06T04:26:50.041Z,8.60
2019-04-06T04:31:53.802Z,8.50
2019-04-06T04:36:57.907Z,8.60
2019-04-06T04:42:01.871Z,9.00
2019-04-06T04:47:05.667Z,8.25
2019-04-06T04:52:09.531Z,9.00
2019-04-06T04:57:13.308Z,7.80
2019-04-06T05:02:17.091Z,8.00
2019-04-06T05:07:20.940Z,8.50
2019-04-06T05:12:24.707Z,8.75
2019-04-06T05:17:28.671Z,8.75
2019-04-06T05:22:32.563Z,8.00
2019-04-06T05:27:36.369Z,7.50
2019-04-06T05:32:40.299Z,8.00
2019-04-06T05:37:44.073Z,8.20
2019-04-06T05:42:47.877Z,7.80
2019-04-06T05:47:51.673Z,8.00
2019-04-06T05:52:55.460Z,8.00
2019-04-06T05:58:03.900Z,7.00
2019-04-06T06:03:05.138Z,7.00
2019-04-06T06:08:08.935Z,7.40
2019-04-06T06:13:12.743Z,7.50
2019-04-06T06:18:25.625Z,7.50
2019-04-06T06:23:22.097Z,7.80
2019-04-06T06:28:25.981Z,8.00
2019-04-06T06:33:29.787Z,6.75
2019-04-06T06:38:33.692Z,8.00
2019-04-06T06:43:37.883Z,7.00
2019-04-06T06:48:43.064Z,6.80
2019-04-06T06:53:47.281Z,6.60
2019-04-06T06:58:51.388Z,20.40
2019-04-06T07:03:55.191Z,25.60
2019-04-06T07:08:59.145Z,27.75
2019-04-06T07:14:03.064Z,21.50
2019-04-06T07:19:06.968Z,18.00
2019-04-06T07:24:10.808Z,19.00
2019-04-06T07:29:17.996Z,17.00
2019-04-06T07:34:21.929Z,17.00
2019-04-06T07:39:26.771Z,17.00
2019-04-06T07:44:30.569Z,15.00
2019-04-06T07:49:34.646Z,14.75
2019-04-06T07:54:38.885Z,15.75
2019-04-06T07:59:42.914Z,14.00
2019-04-06T08:04:46.704Z,16.00
2019-04-06T08:09:50.845Z,15.50
2019-04-06T08:14:57.109Z,15.00
2019-04-06T08:20:00.544Z,14.60
2019-04-06T08:25:04.549Z,15.50
2019-04-06T08:30:09.150Z,15.60
2019-04-06T08:35:23.951Z,14.50
2019-04-06T08:40:18.707Z,16.00
2019-04-06T08:45:22.457Z,15.40
2019-04-06T08:50:26.470Z,15.75
2019-04-06T08:55:30.258Z,15.50
2019-04-06T09:00:34.111Z,15.75
2019-04-06T09:05:38.079Z,14.20
2019-04-06T09:10:42.073Z,16.20
2019-04-06T09:15:46.078Z,17.00
2019-04-06T09:20:49.974Z,15.75
2019-04-06T09:25:53.965Z,15.40
2019-04-06T09:30:57.783Z,16.25
2019-04-06T09:36:02.485Z,15.75
2019-04-06T09:41:06.454Z,15.75
2019-04-06T09:46:36.524Z,15.80
2019-04-06T09:52:03.586Z,15.75
2019-04-06T09:57:25.101Z,17.20
2019-04-06T10:02:36.624Z,16.00
2019-04-06T10:08:14.568Z,15.00
2019-04-06T10:13:36.313Z,15.25
2019-04-06T10:19:13.991Z,16.25
2019-04-06T10:24:32.211Z,16.00
2019-04-06T10:29:59.598Z,17.75
2019-04-06T10:35:11.920Z,16.75
2019-04-06T10:40:22.195Z,17.00
2019-04-06T10:45:50.800Z,16.00
2019-04-06T10:51:16.427Z,17.00
2019-04-06T10:56:29.030Z,17.25
2019-04-06T11:01:51.800Z,17.25
2019-04-06T11:07:15.027Z,18.50
2019-04-06T11:12:28.073Z,18.25
2019-04-06T11:17:46.087Z,23.00
2019-04-06T11:22:57.863Z,26.00
2019-04-06T11:28:20.413Z,20.00
2019-04-06T11:33:45.935Z,21.20
2019-04-06T11:39:17.597Z,18.75
2019-04-06T11:44:59.854Z,19.20
2019-04-06T11:50:22.901Z,21.00
2019-04-06T11:55:51.527Z,22.60
2019-04-06T12:01:04.167Z,23.00
2019-04-06T12:06:19.659Z,20.00
2019-04-06T12:11:33.294Z,20.50
2019-04-06T12:16:51.469Z,22.00
2019-04-06T12:22:23.775Z,23.75
2019-04-06T12:27:52.455Z,23.00
2019-04-06T12:33:13.473Z,23.00
2019-04-06T12:38:32.561Z,22.60
2019-04-06T12:43:54.294Z,22.00
2019-04-06T12:49:07.665Z,23.20
2019-04-06T12:54:29.461Z,22.80
2019-04-06T13:00:07.584Z,23.25
2019-04-06T13:05:29.936Z,22.83
2019-04-06T13:10:40.434Z,23.00
2019-04-06T13:15:58.599Z,23.00
2019-04-06T13:21:21.633Z,24.00
2019-04-06T13:26:43.410Z,23.00
2019-04-06T13:32:12.245Z,22.50
2019-04-06T13:37:29.064Z,23.40
2019-04-06T13:42:49.658Z,23.00
2019-04-06T13:48:15.334Z,23.75
2019-04-06T13:53:30.226Z,23.75
2019-04-06T13:58:46.473Z,23.25
2019-04-06T14:04:52.479Z,23.50
2019-04-06T14:10:15.529Z,22.80
2019-04-06T14:15:41.523Z,21.60
2019-04-06T14:21:03.363Z,22.80
2019-04-06T14:26:20.991Z,21.60
2019-04-06T14:31:58.950Z,23.00
2019-04-06T14:37:21.725Z,23.20
2019-04-06T14:42:41.982Z,21.00
2019-04-06T14:47:51.660Z,23.00
2019-04-06T14:53:08.020Z,23.00
2019-04-06T14:58:30.301Z,24.75
2019-04-06T15:04:04.223Z,22.80
2019-04-06T15:09:28.983Z,22.50
2019-04-06T15:14:40.394Z,21.00
2019-04-06T15:20:12.703Z,21.00
2019-04-06T15:25:41.647Z,20.50
2019-04-06T15:31:03.324Z,20.50
2019-04-06T15:36:22.220Z,21.00
2019-04-06T15:41:35.249Z,21.60
2019-04-06T15:47:06.915Z,22.20
2019-04-06T15:52:45.181Z,19.75
2019-04-06T15:58:05.998Z,22.25
2019-04-06T16:03:38.153Z,21.75
2019-04-06T16:08:59.822Z,22.75
2019-04-06T16:14:17.790Z,22.25
2019-04-06T16:19:47.279Z,20.50
2019-04-06T16:24:56.976Z,21.25
2019-04-06T16:30:11.315Z,21.00
2019-04-06T16:35:31.643Z,22.20
2019-04-06T16:40:54.566Z,22.75
2019-04-06T16:46:09.490Z,23.00
2019-04-06T16:51:29.972Z,22.25
2019-04-06T16:56:59.494Z,20.00
2019-04-06T17:02:29.817Z,22.25
2019-04-06T17:07:52.659Z,22.00
2019-04-06T17:13:14.286Z,21.50
2019-04-06T17:18:33.182Z,22.00
2019-04-06T17:23:54.853Z,21.40
2019-04-06T17:29:20.837Z,19.40
2019-04-06T17:34:53.150Z,20.00
2019-04-06T17:40:11.130Z,22.00
2019-04-06T17:45:29.148Z,21.00
2019-04-06T17:50:58.193Z,19.40
2019-04-06T17:56:24.207Z,21.20
2019-04-06T18:01:49.825Z,19.60
2019-04-06T18:07:25.418Z,20.00
2019-04-06T18:12:47.134Z,19.00
2019-04-06T18:17:50.974Z,19.80
2019-04-06T18:22:56.859Z,20.00
2019-04-06T18:28:00.729Z,19.50
2019-04-06T18:33:14.187Z,18.25
2019-04-06T18:38:28.898Z,20.60
2019-04-06T18:43:32.937Z,19.50
2019-04-06T18:48:37.255Z,20.50
2019-04-06T18:53:41.300Z,21.00
2019-04-06T18:58:45.092Z,20.25
2019-04-06T19:03:49.036Z,21.00
2019-04-06T19:08:52.924Z,21.00
2019-04-06T19:13:56.751Z,20.25
2019-04-06T19:19:00.703Z,20.50
2019-04-06T19:24:04.544Z,20.00
2019-04-06T19:29:08.716Z,20.80
2019-04-06T19:34:12.548Z,20.80
2019-04-06T19:39:16.410Z,20.25
2019-04-06T19:44:20.416Z,19.00
2019-04-06T19:49:24.326Z,21.25
2019-04-06T19:54:28.191Z,19.75
2019-04-06T19:59:32.261Z,20.00
2019-04-06T20:04:36.448Z,19.75
2019-04-06T20:09:40.391Z,18.00
2019-04-06T20:14:44.226Z,20.00
2019-04-06T20:19:48.032Z,18.75
2019-04-06T20:24:52.125Z,18.80
2019-04-06T20:29:56.361Z,19.00
2019-04-06T20:35:00.597Z,19.20
2019-04-06T20:40:05.383Z,17.40
2019-04-06T20:45:09.351Z,18.40
2019-04-06T20:50:13.421Z,18.80
2019-04-06T20:55:17.906Z,18.00
2019-04-06T21:00:21.945Z,18.20
2019-04-06T21:05:25.810Z,18.80
2019-04-06T21:10:29.850Z,16.75
2019-04-06T21:15:34.094Z,18.60
2019-04-06T21:20:38.026Z,17.20
2019-04-06T21:25:41.833Z,17.50
2019-04-06T21:30:45.698Z,19.00
2019-04-06T21:35:49.485Z,18.00
2019-04-06T21:40:54.385Z,17.00
2019-04-06T21:45:58.373Z,18.50
2019-04-06T21:51:02.195Z,16.50
2019-04-06T21:56:08.058Z,16.00
2019-04-06T22:01:12.042Z,17.25
2019-04-06T22:06:15.977Z,17.25
2019-04-06T22:11:20.337Z,16.60
2019-04-06T22:16:24.557Z,15.40
2019-04-06T22:21:28.512Z,17.00
2019-04-06T22:26:32.832Z,17.60
2019-04-06T22:31:37.080Z,16.00
2019-04-06T22:36:41.271Z,16.00
2019-04-06T22:41:45.192Z,16.25
2019-04-06T22:46:49.642Z,16.00
2019-04-06T22:51:53.981Z,13.50
2019-04-06T22:56:57.985Z,15.80
2019-04-06T23:02:01.811Z,14.00
2019-04-06T23:07:20.109Z,14.00
2019-04-06T23:12:24.553Z,16.00
2019-04-06T23:17:28.484Z,13.75
2019-04-06T23:22:32.946Z,12.75
2019-04-06T23:27:37.584Z,14.00
2019-04-06T23:32:41.530Z,15.00
2019-04-06T23:37:45.843Z,14.00
2019-04-06T23:42:49.836Z,12.75
2019-04-06T23:47:53.800Z,14.00
2019-04-06T23:52:57.650Z,13.75
2019-04-06T23:58:01.648Z,14.20
